createdAt,value
2019-02-26T00:00:27.722Z,11.18
2019-02-26T00:02:59.301Z,14.58
2019-02-26T00:05:26.056Z,9.20
2019-02-26T00:07:53.385Z,12.00
2019-02-26T00:10:24.641Z,15.38
2019-02-26T00:12:48.160Z,13.58
2019-02-26T00:15:14.317Z,11.73
2019-02-26T00:17:42.959Z,11.70
2019-02-26T00:20:10.937Z,11.90
2019-02-26T00:22:38.965Z,11.95
2019-02-26T00:25:08.504Z,15.03
2019-02-26T00:27:35.943Z,13.50
2019-02-26T00:30:07.428Z,16.85
2019-02-26T00:32:36.591Z,14.38
2019-02-26T00:35:04.260Z,18.32
2019-02-26T00:37:30.728Z,15.95
2019-02-26T00:39:57.039Z,18.55
2019-02-26T00:42:24.307Z,11.15
2019-02-26T00:44:53.370Z,15.38
2019-02-26T00:47:19.416Z,14.95
2019-02-26T00:49:46.377Z,16.02
2019-02-26T00:52:15.577Z,16.32
2019-02-26T00:54:41.801Z,14.60
2019-02-26T00:57:08.626Z,15.28
2019-02-26T00:59:36.640Z,16.45
2019-02-26T01:02:04.197Z,16.93
2019-02-26T01:04:30.423Z,16.75
2019-02-26T01:06:57.349Z,15.83
2019-02-26T01:09:25.177Z,15.75
2019-02-26T01:11:54.032Z,12.93
2019-02-26T01:14:20.771Z,18.12
2019-02-26T01:16:49.497Z,17.45
2019-02-26T01:19:17.544Z,15.20
2019-02-26T01:21:43.724Z,16.65
2019-02-26T01:24:09.909Z,14.85
2019-02-26T01:26:36.103Z,16.77
2019-02-26T01:29:02.271Z,16.50
2019-02-26T01:31:29.307Z,18.95
2019-02-26T01:33:57.400Z,14.03
2019-02-26T01:36:25.331Z,15.72
2019-02-26T01:38:53.142Z,17.65
2019-02-26T01:41:22.789Z,16.15
2019-02-26T01:43:49.769Z,14.68
2019-02-26T01:46:16.937Z,14.98
2019-02-26T01:48:44.007Z,15.38
2019-02-26T01:51:10.210Z,18.27
2019-02-26T01:53:36.382Z,14.10
2019-02-26T01:56:04.578Z,15.60
2019-02-26T01:58:33.455Z,16.95
2019-02-26T02:00:58.733Z,16.50
2019-02-26T02:03:25.487Z,14.90
2019-02-26T02:05:54.794Z,13.60
2019-02-26T02:08:24.380Z,14.30
2019-02-26T02:10:49.635Z,16.07
2019-02-26T02:13:17.329Z,14.05
2019-02-26T02:15:44.432Z,15.15
2019-02-26T02:18:11.597Z,17.55
2019-02-26T02:20:37.901Z,13.03
2019-02-26T02:23:05.374Z,14.90
2019-02-26T02:25:33.798Z,17.60
2019-02-26T02:28:02.804Z,14.07
2019-02-26T02:30:31.364Z,16.17
2019-02-26T02:32:57.545Z,14.33
2019-02-26T02:35:24.507Z,16.10
2019-02-26T02:37:53.323Z,13.28
2019-02-26T02:40:18.809Z,13.58
2019-02-26T02:42:48.479Z,12.18
2019-02-26T02:45:16.217Z,14.20
2019-02-26T02:47:41.216Z,11.70
2019-02-26T02:50:15.070Z,15.63
2019-02-26T02:52:43.194Z,11.05
2019-02-26T02:55:10.617Z,12.18
2019-02-26T02:57:37.744Z,12.80
2019-02-26T03:00:11.929Z,13.18
2019-02-26T03:02:42.814Z,13.60
2019-02-26T03:05:08.388Z,15.05
2019-02-26T03:07:35.784Z,14.33
2019-02-26T03:10:06.517Z,12.65
2019-02-26T03:12:31.916Z,15.23
2019-02-26T03:14:59.875Z,12.58
2019-02-26T03:17:26.172Z,12.37
2019-02-26T03:19:52.680Z,14.10
2019-02-26T03:22:21.555Z,10.75
2019-02-26T03:24:48.419Z,11.10
2019-02-26T03:27:15.070Z,10.90
2019-02-26T03:29:41.256Z,9.60
2019-02-26T03:32:07.409Z,8.58
2019-02-26T03:34:33.597Z,15.53
2019-02-26T03:37:00.941Z,12.40
2019-02-26T03:39:27.907Z,9.78
2019-02-26T03:41:56.355Z,13.55
2019-02-26T03:44:22.267Z,8.93
2019-02-26T03:46:48.470Z,9.85
2019-02-26T03:49:14.670Z,8.93
2019-02-26T03:51:40.881Z,11.22
2019-02-26T03:54:07.049Z,7.85
2019-02-26T03:56:33.244Z,9.40
2019-02-26T03:59:00.787Z,10.82
2019-02-26T04:01:27.869Z,9.98
2019-02-26T04:03:55.076Z,10.10
2019-02-26T04:06:22.225Z,10.98
2019-02-26T04:08:50.452Z,9.55
2019-02-26T04:11:19.242Z,8.60
2019-02-26T04:13:46.021Z,9.73
2019-02-26T04:16:12.847Z,7.85
2019-02-26T04:18:39.071Z,9.48
2019-02-26T04:21:06.016Z,10.30
2019-02-26T04:23:35.907Z,9.93
2019-02-26T04:26:20.833Z,9.28
2019-02-26T04:28:51.505Z,10.00
2019-02-26T04:31:52.151Z,9.95
2019-02-26T04:34:23.383Z,9.40
2019-02-26T04:37:01.547Z,6.95
2019-02-26T04:39:44.303Z,7.33
2019-02-26T04:42:15.333Z,7.67
2019-02-26T04:45:09.287Z,8.80
2019-02-26T04:47:48.261Z,8.53
2019-02-26T04:50:13.934Z,7.45
2019-02-26T04:52:43.281Z,6.75
2019-02-26T04:55:08.532Z,11.08
2019-02-26T04:57:34.715Z,12.68
2019-02-26T05:00:02.455Z,6.92
2019-02-26T05:02:29.266Z,5.62
2019-02-26T05:04:55.459Z,7.67
2019-02-26T05:07:21.638Z,10.05
2019-02-26T05:09:51.077Z,9.13
2019-02-26T05:12:16.222Z,7.60
2019-02-26T05:14:42.445Z,6.45
2019-02-26T05:17:08.693Z,6.85
2019-02-26T05:19:36.542Z,5.78
2019-02-26T05:22:04.453Z,6.10
2019-02-26T05:24:31.189Z,4.25
2019-02-26T05:26:57.435Z,8.05
2019-02-26T05:29:23.605Z,5.42
2019-02-26T05:31:49.809Z,4.65
2019-02-26T05:34:18.109Z,7.55
2019-02-26T05:36:46.139Z,7.58
2019-02-26T05:39:14.550Z,7.58
2019-02-26T05:41:40.821Z,7.00
2019-02-26T05:44:11.000Z,6.50
2019-02-26T05:46:37.185Z,5.45
2019-02-26T05:49:05.564Z,6.92
2019-02-26T05:51:32.846Z,5.75
2019-02-26T05:54:02.536Z,6.40
2019-02-26T05:56:28.893Z,4.97
2019-02-26T05:58:55.052Z,7.28
2019-02-26T06:01:22.483Z,5.30
2019-02-26T06:03:51.762Z,7.35
2019-02-26T06:06:17.447Z,5.65
2019-02-26T06:08:43.629Z,8.10
2019-02-26T06:11:11.045Z,7.08
2019-02-26T06:13:38.238Z,7.83
2019-02-26T06:16:08.297Z,4.35
2019-02-26T06:18:34.528Z,6.37
2019-02-26T06:21:01.825Z,5.62
2019-02-26T06:23:33.916Z,6.25
2019-02-26T06:26:02.292Z,5.37
2019-02-26T06:28:27.804Z,5.67
2019-02-26T06:30:55.996Z,6.80
2019-02-26T06:33:22.180Z,6.40
2019-02-26T06:35:48.444Z,5.12
2019-02-26T06:38:14.612Z,6.97
2019-02-26T06:40:42.319Z,6.72
2019-02-26T06:43:08.872Z,5.62
2019-02-26T06:45:35.579Z,11.73
2019-02-26T06:48:03.128Z,9.28
2019-02-26T06:50:29.308Z,13.70
2019-02-26T06:52:55.541Z,19.05
2019-02-26T06:55:21.723Z,27.32
2019-02-26T06:57:50.787Z,10.95
2019-02-26T07:00:19.707Z,10.30
2019-02-26T07:02:46.176Z,13.15
2019-02-26T07:05:13.351Z,15.03
2019-02-26T07:07:39.508Z,11.15
2019-02-26T07:10:16.009Z,8.75
2019-02-26T07:12:43.025Z,5.28
2019-02-26T07:15:12.236Z,5.60
2019-02-26T07:17:40.645Z,5.47
2019-02-26T07:20:07.585Z,7.50
2019-02-26T07:22:33.728Z,6.72
2019-02-26T07:25:00.238Z,7.75
2019-02-26T07:27:28.693Z,10.00
2019-02-26T07:29:54.558Z,3.50
2019-02-26T07:32:22.177Z,6.90
2019-02-26T07:34:50.202Z,4.53
2019-02-26T07:37:16.925Z,6.28
2019-02-26T07:39:44.335Z,8.20
2019-02-26T07:42:13.529Z,6.95
2019-02-26T07:44:39.388Z,6.90
2019-02-26T07:47:06.728Z,10.88
2019-02-26T07:49:33.641Z,7.22
2019-02-26T07:52:02.630Z,8.05
2019-02-26T07:54:28.838Z,6.75
2019-02-26T07:56:57.434Z,5.40
2019-02-26T07:59:27.618Z,6.15
2019-02-26T08:01:51.452Z,7.90
2019-02-26T08:04:18.395Z,7.08
2019-02-26T08:06:44.804Z,5.95
2019-02-26T08:09:13.521Z,10.28
2019-02-26T08:11:41.231Z,6.03
2019-02-26T08:14:07.161Z,9.00
2019-02-26T08:16:33.355Z,8.68
2019-02-26T08:19:01.421Z,6.08
2019-02-26T08:21:29.573Z,7.37
2019-02-26T08:23:55.911Z,3.50
2019-02-26T08:26:24.171Z,3.83
2019-02-26T08:28:50.183Z,4.35
2019-02-26T08:31:18.499Z,5.03
2019-02-26T08:33:48.654Z,5.67
2019-02-26T08:36:14.214Z,5.10
2019-02-26T08:38:40.512Z,4.95
2019-02-26T08:41:07.017Z,9.00
2019-02-26T08:43:33.216Z,4.08
2019-02-26T08:45:59.925Z,6.87
2019-02-26T08:48:27.021Z,6.33
2019-02-26T08:50:55.658Z,5.55
2019-02-26T08:53:22.450Z,6.72
2019-02-26T08:55:51.532Z,6.55
2019-02-26T08:58:19.949Z,7.33
2019-02-26T09:00:47.843Z,9.53
2019-02-26T09:03:15.589Z,6.92
2019-02-26T09:05:43.289Z,6.35
2019-02-26T09:08:11.445Z,6.67
2019-02-26T09:10:38.729Z,6.85
2019-02-26T09:13:06.244Z,6.17
2019-02-26T09:15:35.905Z,10.72
2019-02-26T09:18:01.939Z,6.75
2019-02-26T09:20:28.113Z,7.83
2019-02-26T09:22:56.265Z,6.10
2019-02-26T09:25:25.554Z,11.20
2019-02-26T09:27:50.837Z,9.78
2019-02-26T09:30:19.343Z,10.13
2019-02-26T09:32:45.805Z,8.85
2019-02-26T09:35:13.703Z,14.98
2019-02-26T09:37:39.869Z,12.88
2019-02-26T09:40:17.025Z,10.80
2019-02-26T09:42:46.407Z,8.38
2019-02-26T09:45:18.555Z,10.85
2019-02-26T09:47:47.340Z,9.55
2019-02-26T09:50:15.249Z,8.80
2019-02-26T09:52:41.667Z,7.33
2019-02-26T09:55:10.728Z,10.28
2019-02-26T09:57:37.086Z,7.75
2019-02-26T10:00:14.575Z,11.03
2019-02-26T10:02:42.566Z,10.23
2019-02-26T10:05:11.663Z,7.83
2019-02-26T10:07:39.413Z,7.47
2019-02-26T10:10:11.500Z,12.23
2019-02-26T10:12:43.506Z,5.87
2019-02-26T10:15:11.933Z,7.55
2019-02-26T10:17:40.806Z,3.67
2019-02-26T10:20:11.492Z,5.20
2019-02-26T10:22:38.644Z,6.47
2019-02-26T10:25:07.769Z,4.50
2019-02-26T10:27:36.124Z,7.35
2019-02-26T10:30:07.171Z,3.90
2019-02-26T10:32:32.873Z,3.72
2019-02-26T10:34:59.141Z,4.35
2019-02-26T10:37:25.409Z,5.30
2019-02-26T10:39:52.235Z,5.28
2019-02-26T10:42:19.726Z,6.92
2019-02-26T10:44:45.920Z,3.90
2019-02-26T10:47:12.150Z,4.15
2019-02-26T10:49:38.426Z,5.60
2019-02-26T10:52:04.593Z,4.72
2019-02-26T10:54:34.609Z,6.85
2019-02-26T10:57:00.392Z,4.40
2019-02-26T10:59:26.962Z,4.58
2019-02-26T11:01:55.283Z,4.92
2019-02-26T11:04:21.254Z,5.25
2019-02-26T11:06:47.425Z,5.00
2019-02-26T11:09:17.389Z,4.47
2019-02-26T11:11:42.302Z,7.22
2019-02-26T11:14:10.700Z,5.33
2019-02-26T11:16:39.034Z,5.25
2019-02-26T11:19:06.983Z,7.00
2019-02-26T11:21:33.162Z,7.65
2019-02-26T11:24:00.743Z,10.72
2019-02-26T11:26:27.420Z,11.63
2019-02-26T11:28:53.617Z,10.20
2019-02-26T11:31:24.374Z,7.50
2019-02-26T11:33:48.212Z,13.30
2019-02-26T11:36:15.711Z,14.35
2019-02-26T11:38:44.388Z,9.70
2019-02-26T11:41:10.381Z,12.75
2019-02-26T11:43:36.553Z,7.40
2019-02-26T11:46:03.846Z,10.28
2019-02-26T11:48:33.162Z,10.03
2019-02-26T11:51:00.972Z,9.45
2019-02-26T11:53:29.590Z,10.30
2019-02-26T11:55:56.941Z,8.78
2019-02-26T11:58:24.246Z,8.15
2019-02-26T12:00:52.652Z,7.45
2019-02-26T12:03:22.827Z,6.15
2019-02-26T12:05:48.981Z,9.25
2019-02-26T12:08:19.097Z,5.62
2019-02-26T12:10:43.278Z,6.47
2019-02-26T12:13:09.480Z,6.03
2019-02-26T12:15:38.369Z,5.22
2019-02-26T12:18:03.739Z,7.37
2019-02-26T12:20:29.950Z,6.25
2019-02-26T12:22:56.116Z,6.45
2019-02-26T12:25:22.317Z,10.68
2019-02-26T12:27:48.582Z,9.40
2019-02-26T12:30:20.789Z,9.63
2019-02-26T12:32:48.054Z,5.90
2019-02-26T12:35:17.833Z,7.55
2019-02-26T12:37:43.342Z,11.33
2019-02-26T12:40:19.461Z,9.10
2019-02-26T12:42:46.258Z,6.40
2019-02-26T12:45:18.200Z,9.33
2019-02-26T12:47:48.128Z,6.50
2019-02-26T12:50:15.072Z,5.75
2019-02-26T12:52:42.290Z,7.47
2019-02-26T12:55:10.425Z,13.45
2019-02-26T12:57:38.760Z,11.55
2019-02-26T13:00:10.862Z,8.68
2019-02-26T13:02:39.768Z,9.43
2019-02-26T13:05:10.116Z,8.13
2019-02-26T13:07:35.420Z,9.53
2019-02-26T13:10:03.844Z,14.38
2019-02-26T13:12:32.322Z,8.58
2019-02-26T13:15:04.873Z,10.23
2019-02-26T13:17:32.370Z,11.88
2019-02-26T13:20:01.017Z,6.20
2019-02-26T13:22:26.873Z,5.83
2019-02-26T13:24:53.043Z,8.30
2019-02-26T13:27:19.255Z,11.80
2019-02-26T13:29:53.176Z,4.17
2019-02-26T13:32:17.428Z,5.20
2019-02-26T13:34:42.561Z,4.47
2019-02-26T13:37:08.792Z,6.75
2019-02-26T13:39:38.565Z,7.65
2019-02-26T13:42:05.709Z,10.58
2019-02-26T13:44:31.164Z,6.40
2019-02-26T13:46:57.337Z,6.87
2019-02-26T13:49:23.560Z,6.10
2019-02-26T13:51:49.912Z,7.95
2019-02-26T13:54:16.176Z,7.03
2019-02-26T13:56:42.372Z,7.95
2019-02-26T13:59:08.757Z,11.08
2019-02-26T14:01:34.928Z,8.85
2019-02-26T14:04:02.279Z,6.33
2019-02-26T14:06:28.474Z,6.83
2019-02-26T14:08:54.751Z,11.25
2019-02-26T14:11:20.909Z,6.40
2019-02-26T14:13:47.123Z,7.20
2019-02-26T14:16:13.280Z,8.33
2019-02-26T14:18:40.561Z,5.67
2019-02-26T14:21:06.772Z,5.67
2019-02-26T14:23:35.071Z,7.70
2019-02-26T14:26:01.073Z,7.90
2019-02-26T14:28:28.297Z,5.08
2019-02-26T14:30:54.459Z,3.83
2019-02-26T14:33:20.628Z,8.03
2019-02-26T14:35:47.233Z,6.03
2019-02-26T14:38:13.426Z,7.62
2019-02-26T14:40:39.728Z,4.78
2019-02-26T14:43:06.891Z,6.35
2019-02-26T14:45:33.092Z,4.10
2019-02-26T14:47:59.243Z,3.98
2019-02-26T14:50:26.506Z,4.53
2019-02-26T14:52:52.837Z,6.42
2019-02-26T14:55:19.046Z,6.62
2019-02-26T14:57:45.496Z,4.30
2019-02-26T15:00:26.709Z,5.78
2019-02-26T15:02:53.285Z,6.00
2019-02-26T15:05:19.469Z,4.75
2019-02-26T15:07:45.620Z,3.25
2019-02-26T15:10:11.810Z,6.15
2019-02-26T15:12:37.973Z,3.20
2019-02-26T15:15:07.880Z,3.50
2019-02-26T15:17:34.049Z,3.75
2019-02-26T15:20:00.453Z,4.85
2019-02-26T15:22:26.765Z,5.28
2019-02-26T15:24:52.992Z,4.80
2019-02-26T15:27:19.159Z,6.37
2019-02-26T15:29:45.625Z,8.38
2019-02-26T15:32:11.845Z,6.25
2019-02-26T15:34:51.601Z,5.42
2019-02-26T15:37:17.806Z,3.37
2019-02-26T15:39:43.967Z,4.67
2019-02-26T15:42:10.454Z,6.47
2019-02-26T15:44:36.639Z,4.85
2019-02-26T15:47:02.999Z,6.55
2019-02-26T15:49:29.328Z,6.78
2019-02-26T15:51:55.508Z,9.45
2019-02-26T15:54:21.732Z,9.58
2019-02-26T15:56:48.085Z,10.18
2019-02-26T15:59:14.280Z,8.70
2019-02-26T16:01:40.673Z,10.78
2019-02-26T16:04:07.013Z,8.80
2019-02-26T16:06:33.296Z,9.45
2019-02-26T16:08:59.474Z,10.23
2019-02-26T16:11:26.122Z,10.78
2019-02-26T16:13:52.332Z,9.43
2019-02-26T16:16:18.521Z,10.90
2019-02-26T16:18:44.811Z,9.15
2019-02-26T16:21:10.995Z,15.18
2019-02-26T16:23:37.176Z,13.20
2019-02-26T16:26:05.694Z,8.68
2019-02-26T16:28:31.758Z,12.03
2019-02-26T16:30:58.285Z,8.23
2019-02-26T16:33:24.492Z,9.40
2019-02-26T16:35:52.279Z,7.90
2019-02-26T16:38:19.350Z,9.55
2019-02-26T16:40:45.865Z,10.25
2019-02-26T16:43:12.040Z,11.68
2019-02-26T16:45:38.438Z,8.10
2019-02-26T16:48:04.721Z,9.20
2019-02-26T16:50:30.995Z,10.08
2019-02-26T16:53:00.429Z,11.40
2019-02-26T16:55:26.445Z,10.25
2019-02-26T16:57:52.693Z,12.47
2019-02-26T17:00:20.933Z,10.65
2019-02-26T17:02:47.449Z,7.55
2019-02-26T17:05:15.063Z,11.28
2019-02-26T17:07:41.488Z,7.03
2019-02-26T17:10:19.610Z,11.88
2019-02-26T17:12:50.753Z,11.95
2019-02-26T17:15:19.128Z,12.23
2019-02-26T17:17:45.433Z,14.47
2019-02-26T17:20:11.600Z,7.45
2019-02-26T17:22:38.417Z,7.92
2019-02-26T17:25:07.061Z,11.90
2019-02-26T17:27:33.673Z,10.20
2019-02-26T17:29:59.900Z,14.55
2019-02-26T17:32:26.127Z,10.95
2019-02-26T17:34:53.774Z,8.90
2019-02-26T17:37:20.441Z,11.78
2019-02-26T17:39:46.712Z,10.23
2019-02-26T17:42:13.104Z,7.92
2019-02-26T17:44:39.288Z,8.55
2019-02-26T17:47:05.448Z,16.50
2019-02-26T17:49:33.660Z,11.90
2019-02-26T17:51:59.738Z,13.32
2019-02-26T17:54:25.919Z,24.87
2019-02-26T17:56:52.131Z,15.75
2019-02-26T17:59:40.041Z,12.30
2019-02-26T18:02:06.868Z,12.82
2019-02-26T18:04:33.331Z,13.85
2019-02-26T18:07:00.368Z,14.73
2019-02-26T18:09:27.131Z,12.85
2019-02-26T18:11:53.531Z,14.20
2019-02-26T18:14:21.559Z,10.40
2019-02-26T18:16:47.765Z,12.07
2019-02-26T18:19:13.965Z,11.65
2019-02-26T18:21:43.204Z,14.35
2019-02-26T18:24:08.234Z,11.30
2019-02-26T18:26:34.429Z,14.40
2019-02-26T18:29:00.585Z,22.65
2019-02-26T18:31:26.842Z,19.48
2019-02-26T18:33:55.083Z,16.42
2019-02-26T18:36:21.268Z,13.53
2019-02-26T18:38:48.665Z,19.60
2019-02-26T18:41:16.681Z,15.25
2019-02-26T18:43:47.174Z,13.22
2019-02-26T18:46:11.126Z,13.68
2019-02-26T18:48:37.306Z,16.32
2019-02-26T18:51:03.576Z,12.07
2019-02-26T18:53:29.854Z,12.05
2019-02-26T18:55:56.050Z,10.53
2019-02-26T18:58:22.251Z,8.25
2019-02-26T19:00:48.445Z,10.48
2019-02-26T19:03:14.838Z,9.15
2019-02-26T19:05:41.004Z,8.03
2019-02-26T19:08:07.400Z,15.30
2019-02-26T19:10:34.832Z,15.95
2019-02-26T19:13:02.604Z,11.10
2019-02-26T19:15:33.718Z,8.05
2019-02-26T19:18:02.742Z,12.25
2019-02-26T19:20:35.265Z,12.30
2019-02-26T19:23:02.210Z,9.90
2019-02-26T19:25:28.509Z,12.88
2019-02-26T19:27:55.826Z,10.68
2019-02-26T19:30:22.246Z,12.88
2019-02-26T19:32:49.163Z,13.08
2019-02-26T19:35:16.433Z,14.07
2019-02-26T19:37:45.305Z,12.45
2019-02-26T19:40:17.030Z,14.35
2019-02-26T19:42:43.280Z,12.88
2019-02-26T19:45:11.828Z,10.98
2019-02-26T19:47:39.608Z,9.43
2019-02-26T19:50:16.254Z,13.30
2019-02-26T19:52:42.452Z,19.42
2019-02-26T19:55:15.742Z,10.58
2019-02-26T19:57:42.607Z,13.95
2019-02-26T20:00:14.225Z,14.58
2019-02-26T20:02:40.541Z,10.80
2019-02-26T20:05:09.471Z,12.18
2019-02-26T20:07:37.403Z,11.90
2019-02-26T20:10:06.588Z,13.00
2019-02-26T20:12:32.868Z,12.55
2019-02-26T20:14:59.166Z,12.13
2019-02-26T20:17:25.325Z,12.75
2019-02-26T20:19:51.504Z,11.33
2019-02-26T20:22:17.666Z,13.50
2019-02-26T20:24:43.850Z,16.40
2019-02-26T20:27:10.017Z,13.32
2019-02-26T20:29:36.208Z,16.67
2019-02-26T20:32:02.404Z,17.12
2019-02-26T20:34:29.204Z,12.65
2019-02-26T20:36:55.363Z,11.95
2019-02-26T20:39:21.542Z,12.13
2019-02-26T20:41:47.769Z,9.75
2019-02-26T20:44:14.069Z,12.28
2019-02-26T20:46:40.296Z,8.93
2019-02-26T20:49:06.488Z,9.98
2019-02-26T20:51:34.139Z,8.95
2019-02-26T20:54:00.338Z,10.32
2019-02-26T20:56:28.596Z,10.80
2019-02-26T20:58:54.630Z,10.38
2019-02-26T21:01:20.824Z,8.45
2019-02-26T21:03:47.032Z,9.30
2019-02-26T21:06:15.611Z,9.13
2019-02-26T21:08:41.349Z,11.55
2019-02-26T21:11:07.520Z,8.65
2019-02-26T21:13:35.486Z,11.00
2019-02-26T21:16:01.864Z,9.33
2019-02-26T21:18:30.667Z,11.15
2019-02-26T21:20:57.306Z,7.47
2019-02-26T21:23:27.698Z,10.30
2019-02-26T21:25:51.867Z,8.88
2019-02-26T21:28:18.040Z,10.78
2019-02-26T21:30:45.953Z,8.80
2019-02-26T21:33:12.303Z,8.03
2019-02-26T21:35:38.481Z,7.67
2019-02-26T21:38:05.951Z,10.25
2019-02-26T21:40:32.748Z,8.95
2019-02-26T21:43:01.583Z,11.45
2019-02-26T21:45:29.138Z,9.45
2019-02-26T21:47:55.160Z,10.75
2019-02-26T21:50:22.851Z,9.38
2019-02-26T21:53:04.798Z,8.25
2019-02-26T21:55:17.524Z,10.30
2019-02-26T21:57:43.734Z,10.13
2019-02-26T22:00:20.177Z,8.43
2019-02-26T22:02:46.574Z,9.88
2019-02-26T22:05:12.769Z,11.60
2019-02-26T22:07:39.064Z,8.15
2019-02-26T22:10:08.236Z,6.78
2019-02-26T22:12:34.484Z,9.18
2019-02-26T22:15:00.687Z,9.05
2019-02-26T22:17:26.845Z,6.62
2019-02-26T22:19:53.368Z,8.33
2019-02-26T22:22:19.558Z,8.15
2019-02-26T22:24:46.230Z,9.38
2019-02-26T22:27:12.880Z,8.43
2019-02-26T22:29:39.057Z,8.73
2019-02-26T22:32:05.248Z,7.90
2019-02-26T22:34:31.400Z,9.55
2019-02-26T22:36:57.613Z,8.90
2019-02-26T22:39:23.779Z,7.92
2019-02-26T22:41:50.026Z,7.87
2019-02-26T22:44:18.700Z,6.92
2019-02-26T22:46:44.253Z,10.72
2019-02-26T22:49:10.453Z,10.05
2019-02-26T22:51:36.621Z,12.78
2019-02-26T22:54:03.604Z,6.55
2019-02-26T22:56:29.783Z,8.38
2019-02-26T22:58:55.994Z,7.60
2019-02-26T23:01:30.503Z,8.83
2019-02-26T23:03:54.760Z,8.77
2019-02-26T23:06:20.942Z,6.10
2019-02-26T23:08:47.244Z,7.97
2019-02-26T23:11:15.380Z,6.30
2019-02-26T23:13:43.536Z,10.50
2019-02-26T23:16:10.100Z,8.15
2019-02-26T23:18:36.572Z,11.22
2019-02-26T23:21:02.847Z,9.78
2019-02-26T23:23:30.421Z,7.45
2019-02-26T23:25:57.445Z,6.55
2019-02-26T23:28:23.821Z,9.10
2019-02-26T23:30:50.225Z,7.62
2019-02-26T23:33:16.433Z,4.90
2019-02-26T23:35:42.908Z,9.10
2019-02-26T23:38:09.169Z,10.63
2019-02-26T23:40:35.467Z,5.95
2019-02-26T23:43:03.564Z,11.12
2019-02-26T23:45:29.778Z,6.30
2019-02-26T23:47:55.950Z,7.12
2019-02-26T23:50:22.129Z,9.28
2019-02-26T23:52:48.307Z,9.03
2019-02-26T23:55:14.472Z,9.93
2019-02-26T23:57:40.672Z,10.28
